Terminal Aerodrome Forecast
Issued by NWS

Home | Current Version | Previous Version | Text Only | Print | Product List | Glossary Off
Versions: 1 2 3 4 5 6 7 8 9 10 11 12 13

000
FTUS43 KICT 301124
TAFSLN
TAF
KSLN 301124Z 3012/3112 27009KT P6SM SKC
     FM301400 33012KT P6SM SKC
     FM301600 34017G25KT P6SM SKC
     FM310000 35011KT P6SM SKC=

USA.gov is the U.S. government's official web portal to all federal, state and local government web resources and services.